createdAt,value
2023-05-14T00:02:17.701Z,12.59
2023-05-14T00:04:45.461Z,12.57
2023-05-14T00:07:13.432Z,12.55
2023-05-14T00:09:41.253Z,12.52
2023-05-14T00:12:09.037Z,12.49
2023-05-14T00:14:36.796Z,12.46
2023-05-14T00:17:04.656Z,12.43
2023-05-14T00:19:32.439Z,12.40
2023-05-14T00:22:00.533Z,12.37
2023-05-14T00:24:28.316Z,12.32
2023-05-14T00:26:56.059Z,12.28
2023-05-14T00:29:23.995Z,12.23
2023-05-14T00:31:51.874Z,12.19
2023-05-14T00:34:19.693Z,12.16
2023-05-14T00:36:47.517Z,12.12
2023-05-14T00:39:15.342Z,12.08
2023-05-14T00:41:43.478Z,12.04
2023-05-14T00:44:11.290Z,12.00
2023-05-14T00:46:39.118Z,11.98
2023-05-14T00:49:07.136Z,11.95
2023-05-14T00:51:35.046Z,11.92
2023-05-14T00:54:02.802Z,11.89
2023-05-14T00:56:30.692Z,11.87
2023-05-14T00:58:58.553Z,11.84
2023-05-14T01:01:28.697Z,11.82
2023-05-14T01:03:58.053Z,11.81
2023-05-14T01:06:37.659Z,11.81
2023-05-14T01:09:32.802Z,11.83
2023-05-14T01:12:12.450Z,11.85
2023-05-14T01:15:02.780Z,11.87
2023-05-14T01:17:33.218Z,11.90
2023-05-14T01:20:01.958Z,11.94
2023-05-14T01:22:29.825Z,11.97
2023-05-14T01:24:57.836Z,12.01
2023-05-14T01:27:53.567Z,12.05
2023-05-14T01:30:47.045Z,12.11
2023-05-14T01:33:18.264Z,12.16
2023-05-14T01:35:46.575Z,12.19
2023-05-14T01:38:18.459Z,12.22
2023-05-14T01:40:46.923Z,12.25
2023-05-14T01:43:15.812Z,12.28
2023-05-14T01:45:44.026Z,12.31
2023-05-14T01:48:12.911Z,12.34
2023-05-14T01:50:40.863Z,12.36
2023-05-14T01:53:09.889Z,12.38
2023-05-14T01:55:37.749Z,12.41
2023-05-14T01:58:05.622Z,12.43
2023-05-14T02:00:33.590Z,12.45
2023-05-14T02:03:01.420Z,12.47
2023-05-14T02:05:29.312Z,12.49
2023-05-14T02:07:57.127Z,12.50
2023-05-14T02:10:25.465Z,12.50
2023-05-14T02:12:53.949Z,12.51
2023-05-14T02:15:21.739Z,12.52
2023-05-14T02:17:50.116Z,12.55
2023-05-14T02:20:18.098Z,12.56
2023-05-14T02:22:46.418Z,12.57
2023-05-14T02:25:14.834Z,12.58
2023-05-14T02:27:42.630Z,12.59
2023-05-14T02:30:11.330Z,12.61
2023-05-14T02:32:42.180Z,12.63
2023-05-14T02:35:10.706Z,12.66
2023-05-14T02:37:38.541Z,12.68
2023-05-14T02:40:07.456Z,12.70
2023-05-14T02:42:35.618Z,12.74
2023-05-14T02:45:03.747Z,12.77
2023-05-14T02:47:31.683Z,12.81
2023-05-14T02:50:00.699Z,12.85
2023-05-14T02:52:28.490Z,12.89
2023-05-14T02:54:56.219Z,12.91
2023-05-14T02:57:24.197Z,12.92
2023-05-14T02:59:52.142Z,12.94
2023-05-14T03:02:20.492Z,12.96
2023-05-14T03:04:48.884Z,12.98
2023-05-14T03:07:19.373Z,12.97
2023-05-14T03:09:47.257Z,12.98
2023-05-14T03:12:15.202Z,12.98
2023-05-14T03:14:44.320Z,12.98
2023-05-14T03:17:12.245Z,12.98
2023-05-14T03:19:40.860Z,12.98
2023-05-14T03:22:08.935Z,12.99
2023-05-14T03:24:40.066Z,12.99
2023-05-14T03:27:08.824Z,12.99
2023-05-14T03:29:36.618Z,12.99
2023-05-14T03:32:05.172Z,12.99
2023-05-14T03:34:33.080Z,13.00
2023-05-14T03:37:01.209Z,13.03
2023-05-14T03:39:29.024Z,13.06
2023-05-14T03:41:58.897Z,13.09
2023-05-14T03:44:27.013Z,13.10
2023-05-14T03:46:54.765Z,13.12
2023-05-14T03:49:22.651Z,13.13
2023-05-14T03:51:51.606Z,13.15
2023-05-14T03:54:19.414Z,13.16
2023-05-14T03:56:48.374Z,13.15
2023-05-14T03:59:16.222Z,13.14
2023-05-14T04:01:47.066Z,13.11
2023-05-14T04:04:14.878Z,13.11
2023-05-14T04:06:42.705Z,13.11
2023-05-14T04:09:11.946Z,13.12
2023-05-14T04:11:39.746Z,13.12
2023-05-14T04:14:07.753Z,13.13
2023-05-14T04:16:35.605Z,13.13
2023-05-14T04:19:06.555Z,13.13
2023-05-14T04:21:35.834Z,13.16
2023-05-14T04:24:04.690Z,13.21
2023-05-14T04:26:33.485Z,13.25
2023-05-14T04:29:03.127Z,13.30
2023-05-14T04:31:31.766Z,13.36
2023-05-14T04:33:59.720Z,13.41
2023-05-14T04:36:27.461Z,13.46
2023-05-14T04:38:56.037Z,13.51
2023-05-14T04:41:23.842Z,13.57
2023-05-14T04:43:51.605Z,13.62
2023-05-14T04:46:19.849Z,13.68
2023-05-14T04:48:51.684Z,13.73
2023-05-14T04:51:19.414Z,13.79
2023-05-14T04:53:47.786Z,13.83
2023-05-14T04:56:15.763Z,13.89
2023-05-14T04:58:43.629Z,13.95
2023-05-14T05:01:11.445Z,14.01
2023-05-14T05:03:39.462Z,14.08
2023-05-14T05:06:07.846Z,14.15
2023-05-14T05:08:36.848Z,14.20
2023-05-14T05:11:05.112Z,14.26
2023-05-14T05:13:32.968Z,14.29
2023-05-14T05:16:00.825Z,14.33
2023-05-14T05:18:28.681Z,14.37
2023-05-14T05:20:57.054Z,14.41
2023-05-14T05:23:24.813Z,14.48
2023-05-14T05:25:52.665Z,14.57
2023-05-14T05:28:20.508Z,14.67
2023-05-14T05:30:48.471Z,14.77
2023-05-14T05:33:16.412Z,14.86
2023-05-14T05:35:44.751Z,14.95
2023-05-14T05:38:12.592Z,15.03
2023-05-14T05:40:40.548Z,15.13
2023-05-14T05:43:08.351Z,15.24
2023-05-14T05:45:36.201Z,15.37
2023-05-14T05:48:04.277Z,15.51
2023-05-14T05:50:32.269Z,15.62
2023-05-14T05:53:00.114Z,15.73
2023-05-14T05:55:28.856Z,15.83
2023-05-14T05:57:56.633Z,15.92
2023-05-14T06:00:24.809Z,16.02
2023-05-14T06:02:56.521Z,16.10
2023-05-14T06:05:25.395Z,16.19
2023-05-14T06:07:53.790Z,16.27
2023-05-14T06:10:22.330Z,16.33
2023-05-14T06:12:50.365Z,16.40
2023-05-14T06:15:19.799Z,16.45
2023-05-14T06:17:47.969Z,16.52
2023-05-14T06:20:15.904Z,16.56
2023-05-14T06:22:44.028Z,16.62
2023-05-14T06:25:12.052Z,16.70
2023-05-14T06:27:39.811Z,16.75
2023-05-14T06:30:08.436Z,16.81
2023-05-14T06:32:36.366Z,16.89
2023-05-14T06:35:04.528Z,16.97
2023-05-14T06:37:32.300Z,17.05
2023-05-14T06:40:01.157Z,17.13
2023-05-14T06:42:29.019Z,17.23
2023-05-14T06:44:56.739Z,17.35
2023-05-14T06:47:24.852Z,17.47
2023-05-14T06:49:52.775Z,17.59
2023-05-14T06:52:20.508Z,17.72
2023-05-14T06:54:48.333Z,17.86
2023-05-14T06:57:16.274Z,17.96
2023-05-14T06:59:44.081Z,18.02
2023-05-14T07:02:12.431Z,18.09
2023-05-14T07:04:40.516Z,18.15
2023-05-14T07:07:10.704Z,18.18
2023-05-14T07:09:38.493Z,18.21
2023-05-14T07:12:07.052Z,18.24
2023-05-14T07:14:35.185Z,18.30
2023-05-14T07:17:03.197Z,18.38
2023-05-14T07:19:31.042Z,18.45
2023-05-14T07:21:58.844Z,18.49
2023-05-14T07:24:26.641Z,18.51
2023-05-14T07:26:55.268Z,18.57
2023-05-14T07:29:25.046Z,18.63
2023-05-14T07:31:52.970Z,18.66
2023-05-14T07:34:21.090Z,18.66
2023-05-14T07:36:48.926Z,18.77
2023-05-14T07:39:17.859Z,19.03
2023-05-14T07:41:46.042Z,19.33
2023-05-14T07:44:15.988Z,19.52
2023-05-14T07:46:44.862Z,19.74
2023-05-14T07:49:12.977Z,20.04
2023-05-14T07:51:40.723Z,20.31
2023-05-14T07:54:09.758Z,20.49
2023-05-14T07:56:37.534Z,20.60
2023-05-14T07:59:07.116Z,20.72
2023-05-14T13:02:42.752Z,27.47
2023-05-14T13:05:12.033Z,27.71
2023-05-14T13:07:40.226Z,28.00
2023-05-14T13:10:08.681Z,28.27
2023-05-14T13:12:36.572Z,28.46
2023-05-14T13:15:05.482Z,28.65
2023-05-14T13:17:33.247Z,28.73
2023-05-14T13:20:01.243Z,28.60
2023-05-14T13:22:29.429Z,28.35
2023-05-14T13:24:57.323Z,28.14
2023-05-14T13:27:25.290Z,28.14
2023-05-14T13:29:53.241Z,28.25
2023-05-14T13:32:21.012Z,28.42
2023-05-14T13:34:48.755Z,28.54
2023-05-14T13:37:16.782Z,28.46
2023-05-14T13:39:44.549Z,28.40
2023-05-14T13:42:12.397Z,28.44
2023-05-14T13:44:40.303Z,28.54
2023-05-14T13:47:08.587Z,28.59
2023-05-14T13:49:36.383Z,28.75
2023-05-14T13:52:04.667Z,29.01
2023-05-14T13:54:32.916Z,29.27
2023-05-14T13:57:00.707Z,29.52
2023-05-14T13:59:28.517Z,29.82
2023-05-14T14:01:56.251Z,30.16
2023-05-14T14:04:28.071Z,30.43
2023-05-14T14:06:56.070Z,30.63
2023-05-14T14:09:25.572Z,30.77
2023-05-14T14:11:53.615Z,30.90
2023-05-14T14:14:21.563Z,30.99
2023-05-14T14:16:49.367Z,31.07
2023-05-14T14:19:18.509Z,31.20
2023-05-14T14:21:46.591Z,31.35
2023-05-14T14:24:14.503Z,31.28
2023-05-14T14:26:42.342Z,31.08
2023-05-14T14:29:10.177Z,31.01
2023-05-14T14:31:38.209Z,31.05
2023-05-14T14:34:06.283Z,31.01
2023-05-14T14:36:34.032Z,30.74
2023-05-14T14:39:01.983Z,30.35
2023-05-14T14:41:29.943Z,29.95
2023-05-14T14:43:57.745Z,29.65
2023-05-14T14:46:26.639Z,29.43
2023-05-14T14:48:54.503Z,29.14
2023-05-14T14:51:24.070Z,28.79
2023-05-14T14:53:52.991Z,28.41
2023-05-14T14:56:21.272Z,28.02
2023-05-14T14:58:51.408Z,27.60
2023-05-14T15:01:21.312Z,27.21
2023-05-14T15:03:49.250Z,26.88
2023-05-14T15:06:18.346Z,26.59
2023-05-14T15:08:46.176Z,26.36
2023-05-14T15:11:14.387Z,26.17
2023-05-14T15:13:43.171Z,26.00
2023-05-14T15:16:11.288Z,25.81
2023-05-14T15:18:39.113Z,25.64
2023-05-14T15:21:08.158Z,25.45
2023-05-14T15:23:36.564Z,25.27
2023-05-14T15:26:06.439Z,25.12
2023-05-14T15:28:34.297Z,24.98
2023-05-14T15:31:03.582Z,24.89
2023-05-14T15:33:31.394Z,24.81
2023-05-14T15:35:59.228Z,24.75
2023-05-14T15:38:27.009Z,24.70
2023-05-14T15:40:54.780Z,24.65
2023-05-14T15:43:22.601Z,24.53
2023-05-14T15:45:50.600Z,24.37
2023-05-14T15:48:19.885Z,24.14
2023-05-14T15:50:51.619Z,23.90
2023-05-14T15:53:19.465Z,23.69
2023-05-14T15:55:50.429Z,23.53
2023-05-14T15:58:18.202Z,23.38
2023-05-14T16:00:45.957Z,23.25
2023-05-14T16:03:15.452Z,23.15
2023-05-14T16:05:44.756Z,23.04
2023-05-14T16:08:12.606Z,22.96
2023-05-14T16:10:40.670Z,22.90
2023-05-14T16:13:08.384Z,22.82
2023-05-14T16:15:36.305Z,22.78
2023-05-14T16:18:04.401Z,22.73
2023-05-14T16:20:32.203Z,22.69
2023-05-14T16:22:59.978Z,22.65
2023-05-14T16:25:30.304Z,22.58
2023-05-14T16:27:58.057Z,22.46
2023-05-14T16:30:26.080Z,22.35
2023-05-14T16:32:54.353Z,22.24
2023-05-14T16:35:22.275Z,22.16
2023-05-14T16:37:50.523Z,22.10
2023-05-14T16:40:19.758Z,22.02
2023-05-14T16:42:49.243Z,21.95
2023-05-14T16:45:17.460Z,21.88
2023-05-14T16:47:45.458Z,21.80
2023-05-14T16:50:13.365Z,21.71
2023-05-14T16:52:41.184Z,21.63
2023-05-14T16:55:09.531Z,21.56
2023-05-14T16:57:37.450Z,21.48
2023-05-14T17:00:06.611Z,21.39
2023-05-14T17:02:36.103Z,21.27
2023-05-14T17:05:04.584Z,21.14
2023-05-14T17:07:32.592Z,21.04
2023-05-14T17:10:03.510Z,20.96
2023-05-14T17:12:31.377Z,20.90
2023-05-14T17:14:59.351Z,20.86
2023-05-14T17:17:27.426Z,20.80
2023-05-14T17:19:55.263Z,20.73
2023-05-14T17:22:23.060Z,20.65
2023-05-14T17:24:50.918Z,20.58
2023-05-14T17:27:19.040Z,20.52
2023-05-14T17:29:51.025Z,20.47
2023-05-14T17:32:20.423Z,20.43
2023-05-14T17:34:48.396Z,20.39
2023-05-14T17:37:16.851Z,20.34
2023-05-14T17:39:44.662Z,20.30
2023-05-14T17:42:12.603Z,20.25
2023-05-14T17:44:40.650Z,20.21
2023-05-14T17:47:08.943Z,20.18
2023-05-14T17:49:36.866Z,20.16
2023-05-14T17:52:04.972Z,20.14
2023-05-14T17:54:32.793Z,20.11
2023-05-14T17:57:00.788Z,20.08
2023-05-14T17:59:28.955Z,20.05
2023-05-14T18:01:56.790Z,20.01
2023-05-14T18:04:24.719Z,19.98
2023-05-14T18:06:52.905Z,19.93
2023-05-14T18:09:21.365Z,19.89
2023-05-14T18:11:49.435Z,19.85
2023-05-14T18:14:18.721Z,19.80
2023-05-14T18:16:46.813Z,19.78
2023-05-14T18:19:15.269Z,19.75
2023-05-14T18:21:43.343Z,19.71
2023-05-14T18:24:13.543Z,19.65
2023-05-14T18:26:42.554Z,19.59
2023-05-14T18:29:10.381Z,19.50
2023-05-14T18:31:38.316Z,19.41
2023-05-14T18:34:06.168Z,19.34
2023-05-14T18:36:34.145Z,19.28
2023-05-14T18:39:01.879Z,19.24
2023-05-14T18:41:30.436Z,19.20
2023-05-14T18:43:58.387Z,19.17
2023-05-14T18:46:28.991Z,19.11
2023-05-14T18:48:57.027Z,19.04
2023-05-14T18:51:26.149Z,18.97
2023-05-14T18:53:54.752Z,18.90
2023-05-14T18:56:22.660Z,18.82
2023-05-14T18:58:50.544Z,18.77
2023-05-14T19:01:21.403Z,18.73
2023-05-14T19:03:49.296Z,18.69
2023-05-14T19:06:17.159Z,18.66
2023-05-14T19:08:46.191Z,18.66
2023-05-14T19:11:14.067Z,18.66
2023-05-14T19:13:46.645Z,18.64
2023-05-14T19:16:14.750Z,18.60
2023-05-14T19:18:42.923Z,18.57
2023-05-14T19:21:10.989Z,18.54
2023-05-14T19:23:39.579Z,18.51
2023-05-14T19:26:07.571Z,18.49
2023-05-14T19:28:37.933Z,18.44
2023-05-14T19:31:06.085Z,18.41
2023-05-14T19:33:33.968Z,18.37
2023-05-14T19:36:01.776Z,18.35
2023-05-14T19:38:30.497Z,18.33
2023-05-14T19:40:58.332Z,18.32
2023-05-14T19:43:28.048Z,18.32
2023-05-14T19:45:56.123Z,18.31
2023-05-14T19:48:24.112Z,18.31
2023-05-14T19:50:52.134Z,18.29
2023-05-14T19:53:19.877Z,18.28
2023-05-14T19:55:48.898Z,18.25
2023-05-14T19:58:16.746Z,18.22
2023-05-14T20:00:44.580Z,18.18
2023-05-14T20:03:15.802Z,18.14
2023-05-14T20:05:46.551Z,18.10
2023-05-14T20:08:16.984Z,18.07
2023-05-14T20:10:45.150Z,18.04
2023-05-14T20:13:13.092Z,18.00
2023-05-14T20:15:41.432Z,17.95
2023-05-14T20:18:09.413Z,17.91
2023-05-14T20:20:37.400Z,17.88
2023-05-14T20:23:06.373Z,17.87
2023-05-14T20:25:35.047Z,17.87
2023-05-14T20:28:02.874Z,17.86
2023-05-14T20:30:31.553Z,17.85
2023-05-14T20:32:59.584Z,17.84
2023-05-14T20:35:27.690Z,17.82
2023-05-14T20:37:56.500Z,17.81
2023-05-14T20:40:25.357Z,17.78
2023-05-14T20:42:53.231Z,17.75
2023-05-14T20:45:24.281Z,17.73
2023-05-14T20:47:52.705Z,17.70
2023-05-14T20:50:21.629Z,17.66
2023-05-14T20:52:49.394Z,17.63
2023-05-14T20:55:17.945Z,17.60
2023-05-14T20:57:45.775Z,17.58
2023-05-14T21:00:15.097Z,17.56
2023-05-14T21:02:43.515Z,17.54
2023-05-14T21:05:11.429Z,17.51
2023-05-14T21:07:39.497Z,17.49
2023-05-14T21:10:09.310Z,17.47
2023-05-14T21:12:37.178Z,17.44
2023-05-14T21:15:05.811Z,17.41
2023-05-14T21:17:33.774Z,17.39
2023-05-14T21:20:01.617Z,17.49
2023-05-14T21:22:29.438Z,18.41
2023-05-14T21:24:57.288Z,19.42
2023-05-14T21:27:25.139Z,20.31
2023-05-14T21:29:52.921Z,20.71
2023-05-14T21:32:22.446Z,20.20
2023-05-14T21:34:50.387Z,19.58
2023-05-14T21:37:18.186Z,19.12
2023-05-14T21:39:45.996Z,18.77
2023-05-14T21:42:13.830Z,18.47
2023-05-14T21:44:43.149Z,18.19
2023-05-14T21:47:11.488Z,18.23
2023-05-14T21:49:39.196Z,19.19
2023-05-14T21:52:08.048Z,20.08
2023-05-14T21:54:35.884Z,20.46
2023-05-14T21:57:03.810Z,19.95
2023-05-14T21:59:33.765Z,19.31
2023-05-14T22:04:32.327Z,18.44
2023-05-14T22:07:00.148Z,18.15
2023-05-14T22:09:27.927Z,17.89
2023-05-14T22:11:57.148Z,17.73
2023-05-14T22:14:26.697Z,18.12
2023-05-14T22:16:54.604Z,19.01
2023-05-14T22:19:22.569Z,19.56
2023-05-14T22:21:50.299Z,19.91
2023-05-14T22:24:18.113Z,20.01
2023-05-14T22:26:46.062Z,19.45
2023-05-14T22:29:13.795Z,18.81
2023-05-14T22:31:41.582Z,18.28
2023-05-14T22:34:09.441Z,18.13
2023-05-14T22:36:37.398Z,19.09
2023-05-14T22:39:05.249Z,19.98
2023-05-14T22:41:33.163Z,20.36
2023-05-14T22:44:01.184Z,19.87
2023-05-14T22:46:29.651Z,19.23
2023-05-14T22:48:57.594Z,18.73
2023-05-14T22:51:25.981Z,18.32
2023-05-14T22:53:54.628Z,18.18
2023-05-14T22:56:22.412Z,18.97
2023-05-14T22:58:50.487Z,19.73
2023-05-14T23:01:18.286Z,20.22
2023-05-14T23:03:46.092Z,20.36
2023-05-14T23:06:14.695Z,19.82
2023-05-14T23:08:42.581Z,19.23
2023-05-14T23:11:10.380Z,18.78
2023-05-14T23:13:38.160Z,18.41
2023-05-14T23:16:06.113Z,18.11
2023-05-14T23:18:34.340Z,18.07
2023-05-14T23:21:02.396Z,19.08
2023-05-14T23:23:30.116Z,19.92
2023-05-14T23:25:58.017Z,20.44
2023-05-14T23:28:25.893Z,20.70
2023-05-14T23:30:53.661Z,20.10
2023-05-14T23:33:21.794Z,19.38
2023-05-14T23:35:49.660Z,18.80
2023-05-14T23:38:17.657Z,18.33
2023-05-14T23:40:45.477Z,17.96
2023-05-14T23:43:14.685Z,17.90
2023-05-14T23:45:42.650Z,18.86
2023-05-14T23:48:11.299Z,19.83
2023-05-14T23:50:39.092Z,20.30
2023-05-14T23:53:07.871Z,19.76
2023-05-14T23:55:35.923Z,19.04
2023-05-14T23:58:03.861Z,18.51
